sensor_id;sensor_type;location;lat;lon;timestamp;pressure;altitude;pressure_sealevel;temperature;humidity
41800;BME280;27468;47.460;19.034;2023-01-29T00:01:48;101128.03;;;3.31;67.68
41800;BME280;27468;47.460;19.034;2023-01-29T00:04:14;101065.59;;;2.95;67.64
41800;BME280;27468;47.460;19.034;2023-01-29T00:06:39;101136.66;;;3.27;67.40
41800;BME280;27468;47.460;19.034;2023-01-29T00:09:05;101131.41;;;3.26;67.66
41800;BME280;27468;47.460;19.034;2023-01-29T00:11:30;101123.53;;;3.24;67.69
41800;BME280;27468;47.460;19.034;2023-01-29T00:13:56;101049.50;;;2.74;67.94
41800;BME280;27468;47.460;19.034;2023-01-29T00:16:21;101096.78;;;2.92;67.89
41800;BME280;27468;47.460;19.034;2023-01-29T00:18:47;101123.81;;;2.97;67.62
41800;BME280;27468;47.460;19.034;2023-01-29T00:21:17;101141.41;;;3.08;67.63
41800;BME280;27468;47.460;19.034;2023-01-29T00:23:43;101113.09;;;2.84;67.63
41800;BME280;27468;47.460;19.034;2023-01-29T00:26:09;101119.97;;;2.80;67.71
41800;BME280;27468;47.460;19.034;2023-01-29T00:28:35;101109.50;;;2.79;67.82
41800;BME280;27468;47.460;19.034;2023-01-29T00:31:12;101123.34;;;2.76;67.72
41800;BME280;27468;47.460;19.034;2023-01-29T00:33:38;101155.66;;;2.84;68.09
41800;BME280;27468;47.460;19.034;2023-01-29T00:36:04;101119.53;;;2.62;68.14
41800;BME280;27468;47.460;19.034;2023-01-29T00:38:30;101154.81;;;2.85;67.98
41800;BME280;27468;47.460;19.034;2023-01-29T00:40:56;101144.91;;;2.71;67.89
41800;BME280;27468;47.460;19.034;2023-01-29T00:43:40;101144.81;;;2.68;68.02
41800;BME280;27468;47.460;19.034;2023-01-29T00:46:24;101105.44;;;2.54;67.83
41800;BME280;27468;47.460;19.034;2023-01-29T00:48:50;101119.47;;;2.60;67.98
41800;BME280;27468;47.460;19.034;2023-01-29T00:51:15;101115.59;;;2.43;68.19
41800;BME280;27468;47.460;19.034;2023-01-29T00:53:41;101108.63;;;2.42;68.15
41800;BME280;27468;47.460;19.034;2023-01-29T00:56:06;101138.44;;;2.55;68.42
41800;BME280;27468;47.460;19.034;2023-01-29T00:58:32;101170.84;;;2.68;68.54
41800;BME280;27468;47.460;19.034;2023-01-29T01:01:00;101167.19;;;2.59;68.71
41800;BME280;27468;47.460;19.034;2023-01-29T01:03:26;101137.47;;;2.51;68.32
41800;BME280;27468;47.460;19.034;2023-01-29T01:06:03;101169.16;;;2.70;68.22
41800;BME280;27468;47.460;19.034;2023-01-29T01:08:28;101112.72;;;2.32;68.43
41800;BME280;27468;47.460;19.034;2023-01-29T01:11:12;101165.41;;;2.58;68.70
41800;BME280;27468;47.460;19.034;2023-01-29T01:13:38;101107.16;;;2.17;68.68
41800;BME280;27468;47.460;19.034;2023-01-29T01:16:11;101112.09;;;2.08;68.99
41800;BME280;27468;47.460;19.034;2023-01-29T01:18:37;101129.56;;;2.12;69.02
41800;BME280;27468;47.460;19.034;2023-01-29T01:21:03;101140.72;;;2.08;69.83
41800;BME280;27468;47.460;19.034;2023-01-29T01:23:29;101146.59;;;2.01;70.17
41800;BME280;27468;47.460;19.034;2023-01-29T01:25:54;101169.03;;;1.97;70.55
41800;BME280;27468;47.460;19.034;2023-01-29T01:28:20;101148.81;;;1.87;70.40
41800;BME280;27468;47.460;19.034;2023-01-29T01:30:45;101163.44;;;1.84;70.67
41800;BME280;27468;47.460;19.034;2023-01-29T01:33:11;101168.03;;;1.92;70.50
41800;BME280;27468;47.460;19.034;2023-01-29T01:35:37;101174.72;;;1.84;70.50
41800;BME280;27468;47.460;19.034;2023-01-29T01:38:03;101153.66;;;1.75;70.62
41800;BME280;27468;47.460;19.034;2023-01-29T01:40:29;101137.44;;;1.52;71.41
41800;BME280;27468;47.460;19.034;2023-01-29T01:42:56;101188.28;;;1.74;71.41
41800;BME280;27468;47.460;19.034;2023-01-29T01:48:12;101173.31;;;1.64;71.43
41800;BME280;27468;47.460;19.034;2023-01-29T01:50:45;101171.59;;;1.64;70.82
41800;BME280;27468;47.460;19.034;2023-01-29T01:53:18;101179.16;;;1.57;71.10
41800;BME280;27468;47.460;19.034;2023-01-29T01:55:49;101152.50;;;1.34;71.61
41800;BME280;27468;47.460;19.034;2023-01-29T01:58:32;101168.25;;;1.40;71.18
41800;BME280;27468;47.460;19.034;2023-01-29T02:01:00;101143.53;;;1.24;71.29
41800;BME280;27468;47.460;19.034;2023-01-29T02:03:26;101171.41;;;1.30;71.74
41800;BME280;27468;47.460;19.034;2023-01-29T02:06:11;101178.41;;;1.32;71.71
41800;BME280;27468;47.460;19.034;2023-01-29T02:09:03;101121.03;;;0.95;72.28
41800;BME280;27468;47.460;19.034;2023-01-29T02:11:49;101161.47;;;1.15;71.95
41800;BME280;27468;47.460;19.034;2023-01-29T02:14:15;101191.16;;;1.25;72.14
41800;BME280;27468;47.460;19.034;2023-01-29T02:16:40;101206.75;;;1.25;71.87
41800;BME280;27468;47.460;19.034;2023-01-29T02:19:16;101190.06;;;1.17;72.05
41800;BME280;27468;47.460;19.034;2023-01-29T02:35:10;101224.72;;;0.90;74.16
41800;BME280;27468;47.460;19.034;2023-01-29T02:41:13;101195.41;;;0.68;74.21
41800;BME280;27468;47.460;19.034;2023-01-29T02:43:46;101218.09;;;0.73;74.14
41800;BME280;27468;47.460;19.034;2023-01-29T02:51:58;101176.66;;;0.24;74.81
41800;BME280;27468;47.460;19.034;2023-01-29T02:54:49;101217.19;;;0.46;75.64
41800;BME280;27468;47.460;19.034;2023-01-29T02:57:22;101234.56;;;0.48;75.15
41800;BME280;27468;47.460;19.034;2023-01-29T03:02:59;101237.94;;;0.46;75.10
41800;BME280;27468;47.460;19.034;2023-01-29T03:05:44;101234.41;;;0.44;75.27
41800;BME280;27468;47.460;19.034;2023-01-29T03:08:20;101240.47;;;0.44;75.57
41800;BME280;27468;47.460;19.034;2023-01-29T03:10:53;101242.13;;;0.42;76.38
41800;BME280;27468;47.460;19.034;2023-01-29T03:13:34;101220.13;;;0.31;76.26
41800;BME280;27468;47.460;19.034;2023-01-29T03:16:14;101177.66;;;0.04;76.95
41800;BME280;27468;47.460;19.034;2023-01-29T03:18:47;101244.66;;;0.41;76.98
41800;BME280;27468;47.460;19.034;2023-01-29T03:21:37;101228.16;;;0.39;76.95
41800;BME280;27468;47.460;19.034;2023-01-29T03:24:53;101183.34;;;0.17;76.92
41800;BME280;27468;47.460;19.034;2023-01-29T03:27:43;101231.97;;;0.48;77.07
41800;BME280;27468;47.460;19.034;2023-01-29T03:30:29;101248.84;;;0.62;77.17
41800;BME280;27468;47.460;19.034;2023-01-29T03:33:18;101253.47;;;0.71;76.85
41800;BME280;27468;47.460;19.034;2023-01-29T03:35:57;101246.59;;;0.72;76.72
41800;BME280;27468;47.460;19.034;2023-01-29T03:38:25;101244.97;;;0.75;77.01
41800;BME280;27468;47.460;19.034;2023-01-29T03:40:59;101192.47;;;0.57;76.80
41800;BME280;27468;47.460;19.034;2023-01-29T03:43:43;101245.13;;;0.80;76.62
41800;BME280;27468;47.460;19.034;2023-01-29T03:49:05;101253.03;;;1.10;76.40
41800;BME280;27468;47.460;19.034;2023-01-29T03:54:27;101255.03;;;1.18;76.01
41800;BME280;27468;47.460;19.034;2023-01-29T03:57:30;101255.91;;;1.19;75.59
41800;BME280;27468;47.460;19.034;2023-01-29T04:00:18;101252.69;;;1.26;75.57
41800;BME280;27468;47.460;19.034;2023-01-29T04:02:57;101254.50;;;1.28;75.40
41800;BME280;27468;47.460;19.034;2023-01-29T04:05:31;101206.28;;;0.83;75.32
41800;BME280;27468;47.460;19.034;2023-01-29T04:08:04;101247.47;;;1.26;75.13
41800;BME280;27468;47.460;19.034;2023-01-29T04:10:35;101236.25;;;1.27;75.11
41800;BME280;27468;47.460;19.034;2023-01-29T04:13:10;101229.88;;;1.17;75.21
41800;BME280;27468;47.460;19.034;2023-01-29T04:15:58;101209.03;;;1.14;75.02
41800;BME280;27468;47.460;19.034;2023-01-29T04:18:28;101197.44;;;1.03;75.10
41800;BME280;27468;47.460;19.034;2023-01-29T04:21:00;101193.13;;;1.04;74.96
41800;BME280;27468;47.460;19.034;2023-01-29T04:23:35;101125.38;;;0.69;74.67
41800;BME280;27468;47.460;19.034;2023-01-29T04:29:13;101243.19;;;1.55;74.57
41800;BME280;27468;47.460;19.034;2023-01-29T04:34:28;101176.47;;;1.25;74.36
41800;BME280;27468;47.460;19.034;2023-01-29T04:37:16;101194.16;;;1.37;74.30
41800;BME280;27468;47.460;19.034;2023-01-29T04:39:51;101242.59;;;1.63;74.39
41800;BME280;27468;47.460;19.034;2023-01-29T04:42:53;101240.09;;;1.67;74.39
41800;BME280;27468;47.460;19.034;2023-01-29T04:56:09;101182.09;;;1.39;73.90
41800;BME280;27468;47.460;19.034;2023-01-29T04:58:51;101249.06;;;1.78;73.81
41800;BME280;27468;47.460;19.034;2023-01-29T05:01:21;101199.56;;;1.45;73.72
41800;BME280;27468;47.460;19.034;2023-01-29T05:03:51;101222.78;;;1.67;73.59
41800;BME280;27468;47.460;19.034;2023-01-29T05:06:19;101238.56;;;1.75;73.43
41800;BME280;27468;47.460;19.034;2023-01-29T05:08:46;101234.28;;;1.77;73.32
41800;BME280;27468;47.460;19.034;2023-01-29T05:11:15;101245.00;;;1.87;73.17
41800;BME280;27468;47.460;19.034;2023-01-29T05:13:41;101230.16;;;1.83;73.08
41800;BME280;27468;47.460;19.034;2023-01-29T05:16:17;101243.34;;;1.89;72.84
41800;BME280;27468;47.460;19.034;2023-01-29T05:18:43;101230.25;;;1.86;72.47
41800;BME280;27468;47.460;19.034;2023-01-29T05:21:09;101251.28;;;1.94;72.23
41800;BME280;27468;47.460;19.034;2023-01-29T05:23:35;101191.59;;;1.67;72.27
41800;BME280;27468;47.460;19.034;2023-01-29T05:26:00;101254.06;;;2.00;71.94
41800;BME280;27468;47.460;19.034;2023-01-29T05:28:26;101226.09;;;1.93;71.92
41800;BME280;27468;47.460;19.034;2023-01-29T05:30:53;101234.69;;;1.90;71.79
41800;BME280;27468;47.460;19.034;2023-01-29T05:33:27;101228.56;;;1.88;71.67
41800;BME280;27468;47.460;19.034;2023-01-29T05:35:54;101244.66;;;2.05;71.74
41800;BME280;27468;47.460;19.034;2023-01-29T05:38:20;101238.50;;;2.02;71.62
41800;BME280;27468;47.460;19.034;2023-01-29T05:40:47;101252.59;;;2.10;71.57
41800;BME280;27468;47.460;19.034;2023-01-29T05:43:18;101246.50;;;2.09;71.26
41800;BME280;27468;47.460;19.034;2023-01-29T05:45:51;101252.66;;;2.11;71.26
41800;BME280;27468;47.460;19.034;2023-01-29T05:48:17;101250.97;;;2.13;71.06
41800;BME280;27468;47.460;19.034;2023-01-29T05:50:43;101242.25;;;2.11;70.59
41800;BME280;27468;47.460;19.034;2023-01-29T05:53:08;101252.66;;;2.11;70.38
41800;BME280;27468;47.460;19.034;2023-01-29T05:55:33;101185.75;;;1.76;70.18
41800;BME280;27468;47.460;19.034;2023-01-29T05:57:59;101250.97;;;2.13;70.21
41800;BME280;27468;47.460;19.034;2023-01-29T06:00:25;101256.25;;;2.16;70.02
41800;BME280;27468;47.460;19.034;2023-01-29T06:02:50;101160.41;;;1.67;69.73
41800;BME280;27468;47.460;19.034;2023-01-29T06:05:16;101250.03;;;2.11;69.69
41800;BME280;27468;47.460;19.034;2023-01-29T06:07:41;101254.72;;;2.23;69.63
41800;BME280;27468;47.460;19.034;2023-01-29T06:10:15;101193.94;;;1.89;69.41
41800;BME280;27468;47.460;19.034;2023-01-29T06:12:42;101253.91;;;2.25;69.11
41800;BME280;27468;47.460;19.034;2023-01-29T06:15:08;101256.38;;;2.21;69.10
41800;BME280;27468;47.460;19.034;2023-01-29T06:17:34;101266.13;;;2.28;69.13
41800;BME280;27468;47.460;19.034;2023-01-29T06:19:59;101279.00;;;2.23;68.14
41800;BME280;27468;47.460;19.034;2023-01-29T06:22:24;101278.25;;;2.27;67.58
41800;BME280;27468;47.460;19.034;2023-01-29T06:24:50;101196.09;;;1.73;66.23
41800;BME280;27468;47.460;19.034;2023-01-29T06:27:15;101217.91;;;1.79;66.28
41800;BME280;27468;47.460;19.034;2023-01-29T06:29:41;101278.16;;;2.24;66.52
41800;BME280;27468;47.460;19.034;2023-01-29T06:32:06;101292.75;;;2.19;66.39
41800;BME280;27468;47.460;19.034;2023-01-29T06:34:31;101272.53;;;2.09;66.51
41800;BME280;27468;47.460;19.034;2023-01-29T06:36:57;101260.19;;;2.02;66.77
41800;BME280;27468;47.460;19.034;2023-01-29T06:39:22;101276.31;;;2.20;66.89
41800;BME280;27468;47.460;19.034;2023-01-29T06:41:47;101285.00;;;2.21;66.03
41800;BME280;27468;47.460;19.034;2023-01-29T06:44:13;101312.16;;;2.30;66.09
41800;BME280;27468;47.460;19.034;2023-01-29T06:46:38;101289.28;;;2.19;66.56
41800;BME280;27468;47.460;19.034;2023-01-29T06:49:04;101304.28;;;2.27;66.60
41800;BME280;27468;47.460;19.034;2023-01-29T06:51:29;101291.13;;;2.23;66.36
41800;BME280;27468;47.460;19.034;2023-01-29T06:53:55;101261.84;;;2.00;67.18
41800;BME280;27468;47.460;19.034;2023-01-29T06:56:21;101308.69;;;2.30;67.16
41800;BME280;27468;47.460;19.034;2023-01-29T06:58:47;101315.84;;;2.39;67.40
41800;BME280;27468;47.460;19.034;2023-01-29T07:01:13;101301.09;;;2.39;67.43
41800;BME280;27468;47.460;19.034;2023-01-29T07:03:38;101314.34;;;2.47;66.74
41800;BME280;27468;47.460;19.034;2023-01-29T07:06:06;101318.34;;;2.36;66.45
41800;BME280;27468;47.460;19.034;2023-01-29T07:08:38;101260.19;;;2.02;66.73
41800;BME280;27468;47.460;19.034;2023-01-29T07:11:06;101300.63;;;2.21;67.20
41800;BME280;27468;47.460;19.034;2023-01-29T07:13:32;101256.47;;;1.94;67.13
41800;BME280;27468;47.460;19.034;2023-01-29T07:15:58;101310.31;;;2.26;67.03
41800;BME280;27468;47.460;19.034;2023-01-29T07:18:25;101248.94;;;2.03;66.93
41800;BME280;27468;47.460;19.034;2023-01-29T07:20:51;101320.06;;;2.35;66.78
41800;BME280;27468;47.460;19.034;2023-01-29T07:23:16;101310.69;;;2.40;66.40
41800;BME280;27468;47.460;19.034;2023-01-29T07:25:42;101294.97;;;2.37;66.08
41800;BME280;27468;47.460;19.034;2023-01-29T07:28:08;101303.13;;;2.49;66.21
41800;BME280;27468;47.460;19.034;2023-01-29T07:30:34;101248.28;;;2.10;66.01
41800;BME280;27468;47.460;19.034;2023-01-29T07:33:06;101300.13;;;2.36;65.17
41800;BME280;27468;47.460;19.034;2023-01-29T07:35:40;101272.84;;;2.20;65.78
41800;BME280;27468;47.460;19.034;2023-01-29T07:38:07;101277.41;;;2.28;65.82
41800;BME280;27468;47.460;19.034;2023-01-29T07:40:33;101273.53;;;2.14;66.20
41800;BME280;27468;47.460;19.034;2023-01-29T07:42:59;101301.94;;;2.07;66.69
41800;BME280;27468;47.460;19.034;2023-01-29T07:45:26;101246.91;;;1.93;66.64
41800;BME280;27468;47.460;19.034;2023-01-29T07:47:52;101232.81;;;1.85;66.83
41800;BME280;27468;47.460;19.034;2023-01-29T07:50:19;101280.63;;;2.20;66.44
41800;BME280;27468;47.460;19.034;2023-01-29T07:52:44;101280.16;;;2.35;66.38
41800;BME280;27468;47.460;19.034;2023-01-29T07:55:10;101288.22;;;2.44;66.05
41800;BME280;27468;47.460;19.034;2023-01-29T07:57:35;101294.25;;;2.43;65.98
41800;BME280;27468;47.460;19.034;2023-01-29T08:00:01;101273.84;;;2.25;65.43
41800;BME280;27468;47.460;19.034;2023-01-29T08:02:26;101275.28;;;2.47;65.00
41800;BME280;27468;47.460;19.034;2023-01-29T08:04:52;101283.44;;;2.59;64.81
41800;BME280;27468;47.460;19.034;2023-01-29T08:07:17;101230.13;;;2.45;64.11
41800;BME280;27468;47.460;19.034;2023-01-29T08:09:42;101282.50;;;2.88;63.71
41800;BME280;27468;47.460;19.034;2023-01-29T08:12:08;101260.53;;;2.79;63.36
41800;BME280;27468;47.460;19.034;2023-01-29T08:14:33;101237.25;;;2.52;63.19
41800;BME280;27468;47.460;19.034;2023-01-29T08:16:59;101249.88;;;2.70;63.55
41800;BME280;27468;47.460;19.034;2023-01-29T08:19:24;101258.81;;;2.79;63.69
41800;BME280;27468;47.460;19.034;2023-01-29T08:21:49;101281.91;;;3.00;63.83
41800;BME280;27468;47.460;19.034;2023-01-29T08:24:15;101306.50;;;3.11;62.73
41800;BME280;27468;47.460;19.034;2023-01-29T08:26:40;101219.53;;;2.70;62.64
41800;BME280;27468;47.460;19.034;2023-01-29T08:29:06;101305.66;;;3.12;62.17
41800;BME280;27468;47.460;19.034;2023-01-29T08:31:31;101248.50;;;2.84;61.36
41800;BME280;27468;47.460;19.034;2023-01-29T08:33:57;101265.09;;;2.89;60.95
41800;BME280;27468;47.460;19.034;2023-01-29T08:36:23;101267.72;;;2.89;61.32
41800;BME280;27468;47.460;19.034;2023-01-29T08:38:49;101316.34;;;2.88;61.10
41800;BME280;27468;47.460;19.034;2023-01-29T08:41:14;101276.44;;;2.56;61.64
41800;BME280;27468;47.460;19.034;2023-01-29T08:43:40;101296.72;;;2.68;62.07
41800;BME280;27468;47.460;19.034;2023-01-29T08:46:06;101233.94;;;2.57;61.64
41800;BME280;27468;47.460;19.034;2023-01-29T08:48:32;101311.53;;;3.05;60.82
41800;BME280;27468;47.460;19.034;2023-01-29T08:50:59;101320.97;;;3.00;60.69
41800;BME280;27468;47.460;19.034;2023-01-29T08:53:25;101275.19;;;2.75;60.48
41800;BME280;27468;47.460;19.034;2023-01-29T08:55:51;101295.16;;;2.75;60.26
41800;BME280;27468;47.460;19.034;2023-01-29T08:58:17;101348.81;;;3.03;60.49
41800;BME280;27468;47.460;19.034;2023-01-29T09:00:42;101347.56;;;2.87;61.90
41800;BME280;27468;47.460;19.034;2023-01-29T09:03:08;101346.97;;;2.98;61.71
41800;BME280;27468;47.460;19.034;2023-01-29T09:05:35;101359.25;;;3.03;60.62
41800;BME280;27468;47.460;19.034;2023-01-29T09:08:01;101361.00;;;3.04;60.26
41800;BME280;27468;47.460;19.034;2023-01-29T09:10:27;101351.81;;;2.83;60.25
41800;BME280;27468;47.460;19.034;2023-01-29T09:12:52;101339.47;;;2.76;59.98
41800;BME280;27468;47.460;19.034;2023-01-29T09:15:18;101342.97;;;2.78;59.63
41800;BME280;27468;47.460;19.034;2023-01-29T09:17:43;101357.19;;;2.91;59.71
41800;BME280;27468;47.460;19.034;2023-01-29T09:20:09;101355.59;;;2.96;59.04
41800;BME280;27468;47.460;19.034;2023-01-29T09:22:35;101338.16;;;2.93;59.11
41800;BME280;27468;47.460;19.034;2023-01-29T09:25:00;101353.19;;;3.04;58.83
41800;BME280;27468;47.460;19.034;2023-01-29T09:27:26;101360.78;;;2.96;58.60
41800;BME280;27468;47.460;19.034;2023-01-29T09:29:52;101361.63;;;2.95;58.73
41800;BME280;27468;47.460;19.034;2023-01-29T09:32:17;101340.97;;;3.01;58.20
41800;BME280;27468;47.460;19.034;2023-01-29T09:34:43;101349.75;;;3.05;58.59
41800;BME280;27468;47.460;19.034;2023-01-29T09:37:08;101303.28;;;2.87;58.28
41800;BME280;27468;47.460;19.034;2023-01-29T09:39:33;101349.22;;;3.18;58.13
41800;BME280;27468;47.460;19.034;2023-01-29T09:42:20;101372.00;;;3.25;58.13
41800;BME280;27468;47.460;19.034;2023-01-29T09:45:15;101360.06;;;3.35;57.93
41800;BME280;27468;47.460;19.034;2023-01-29T09:47:43;101362.84;;;3.41;57.59
41800;BME280;27468;47.460;19.034;2023-01-29T09:50:16;101368.59;;;3.27;57.42
41800;BME280;27468;47.460;19.034;2023-01-29T09:57:59;101366.09;;;2.99;57.54
41800;BME280;27468;47.460;19.034;2023-01-29T10:00:57;101368.19;;;3.12;57.83
41800;BME280;27468;47.460;19.034;2023-01-29T10:03:42;101369.53;;;3.31;57.29
41800;BME280;27468;47.460;19.034;2023-01-29T10:06:34;101370.00;;;3.15;57.32
41800;BME280;27468;47.460;19.034;2023-01-29T10:14:44;101364.34;;;3.31;55.87
41800;BME280;27468;47.460;19.034;2023-01-29T10:23:28;101366.44;;;3.46;55.43
41800;BME280;27468;47.460;19.034;2023-01-29T10:25:54;101364.72;;;3.46;55.83
41800;BME280;27468;47.460;19.034;2023-01-29T10:28:26;101361.38;;;3.53;55.51
41800;BME280;27468;47.460;19.034;2023-01-29T10:30:59;101367.59;;;3.58;55.26
41800;BME280;27468;47.460;19.034;2023-01-29T10:33:37;101357.28;;;3.63;54.68
41800;BME280;27468;47.460;19.034;2023-01-29T10:36:07;101367.53;;;3.55;54.46
41800;BME280;27468;47.460;19.034;2023-01-29T10:38:45;101381.19;;;3.45;55.03
41800;BME280;27468;47.460;19.034;2023-01-29T10:44:13;101316.22;;;3.18;54.13
41800;BME280;27468;47.460;19.034;2023-01-29T10:55:32;101339.47;;;3.44;53.34
41800;BME280;27468;47.460;19.034;2023-01-29T10:58:21;101348.84;;;3.37;53.31
41800;BME280;27468;47.460;19.034;2023-01-29T11:00:51;101279.44;;;3.06;53.39
41800;BME280;27468;47.460;19.034;2023-01-29T11:03:21;101322.91;;;3.42;53.73
41800;BME280;27468;47.460;19.034;2023-01-29T11:08:22;101297.41;;;3.30;53.54
41800;BME280;27468;47.460;19.034;2023-01-29T11:11:17;101316.81;;;3.41;53.74
41800;BME280;27468;47.460;19.034;2023-01-29T11:13:57;101308.22;;;3.45;53.40
41800;BME280;27468;47.460;19.034;2023-01-29T11:16:25;101325.84;;;3.57;52.49
41800;BME280;27468;47.460;19.034;2023-01-29T11:18:59;101325.81;;;3.55;52.22
41800;BME280;27468;47.460;19.034;2023-01-29T11:21:26;101257.03;;;3.13;52.81
41800;BME280;27468;47.460;19.034;2023-01-29T11:24:05;101312.28;;;3.34;52.15
41800;BME280;27468;47.460;19.034;2023-01-29T11:26:34;101302.78;;;3.36;52.47
41800;BME280;27468;47.460;19.034;2023-01-29T11:29:01;101271.97;;;3.20;51.82
41800;BME280;27468;47.460;19.034;2023-01-29T11:31:37;101278.38;;;3.33;51.44
41800;BME280;27468;47.460;19.034;2023-01-29T11:34:12;101288.91;;;3.37;51.38
41800;BME280;27468;47.460;19.034;2023-01-29T11:36:40;101287.34;;;3.45;50.75
41800;BME280;27468;47.460;19.034;2023-01-29T11:39:22;101270.03;;;3.49;50.91
41800;BME280;27468;47.460;19.034;2023-01-29T11:44:18;101265.97;;;3.61;50.27
41800;BME280;27468;47.460;19.034;2023-01-29T11:46:44;101263.66;;;3.74;50.02
41800;BME280;27468;47.460;19.034;2023-01-29T11:49:22;101259.91;;;3.62;49.63
41800;BME280;27468;47.460;19.034;2023-01-29T11:51:53;101210.16;;;3.53;50.26
41800;BME280;27468;47.460;19.034;2023-01-29T11:54:22;101239.22;;;3.70;49.21
41800;BME280;27468;47.460;19.034;2023-01-29T11:56:51;101248.91;;;3.76;49.00
41800;BME280;27468;47.460;19.034;2023-01-29T11:59:42;101220.97;;;3.70;49.02
41800;BME280;27468;47.460;19.034;2023-01-29T12:04:52;101234.50;;;3.93;48.79
41800;BME280;27468;47.460;19.034;2023-01-29T12:07:18;101201.25;;;3.83;48.10
41800;BME280;27468;47.460;19.034;2023-01-29T12:09:55;101247.25;;;4.21;48.56
41800;BME280;27468;47.460;19.034;2023-01-29T12:12:30;101247.19;;;4.18;47.59
41800;BME280;27468;47.460;19.034;2023-01-29T12:15:16;101200.53;;;3.90;47.59
41800;BME280;27468;47.460;19.034;2023-01-29T12:17:46;101247.03;;;4.11;47.70
41800;BME280;27468;47.460;19.034;2023-01-29T12:20:21;101243.59;;;4.13;47.21
41800;BME280;27468;47.460;19.034;2023-01-29T12:23:10;101245.34;;;4.14;47.16
41800;BME280;27468;47.460;19.034;2023-01-29T12:26:00;101235.66;;;4.09;47.37
41800;BME280;27468;47.460;19.034;2023-01-29T12:34:22;101240.44;;;3.86;47.27
41800;BME280;27468;47.460;19.034;2023-01-29T12:36:55;101230.75;;;3.80;47.04
41800;BME280;27468;47.460;19.034;2023-01-29T12:39:24;101188.16;;;3.39;47.64
41800;BME280;27468;47.460;19.034;2023-01-29T12:42:14;101239.69;;;3.52;48.06
41800;BME280;27468;47.460;19.034;2023-01-29T12:49:51;101230.59;;;2.97;48.51
41800;BME280;27468;47.460;19.034;2023-01-29T12:52:29;101189.31;;;2.77;47.93
41800;BME280;27468;47.460;19.034;2023-01-29T12:55:15;101237.69;;;3.03;48.26
41800;BME280;27468;47.460;19.034;2023-01-29T12:58:03;101215.47;;;2.81;49.01
41800;BME280;27468;47.460;19.034;2023-01-29T13:00:42;101233.41;;;2.71;49.46
41800;BME280;27468;47.460;19.034;2023-01-29T13:03:18;101218.28;;;2.56;49.77
41800;BME280;27468;47.460;19.034;2023-01-29T13:05:57;101147.31;;;1.95;50.21
41800;BME280;27468;47.460;19.034;2023-01-29T13:08:41;101186.44;;;2.33;49.75
41800;BME280;27468;47.460;19.034;2023-01-29T13:11:09;101224.81;;;2.40;49.78
41800;BME280;27468;47.460;19.034;2023-01-29T13:13:44;101214.31;;;2.37;50.17
41800;BME280;27468;47.460;19.034;2023-01-29T13:16:18;101210.59;;;2.27;50.60
41800;BME280;27468;47.460;19.034;2023-01-29T13:18:56;101202.75;;;2.26;50.47
41800;BME280;27468;47.460;19.034;2023-01-29T13:21:29;101205.50;;;2.32;50.42
41800;BME280;27468;47.460;19.034;2023-01-29T13:23:59;101173.00;;;1.85;50.75
41800;BME280;27468;47.460;19.034;2023-01-29T13:26:26;101195.97;;;1.99;50.89
41800;BME280;27468;47.460;19.034;2023-01-29T13:28:53;101190.63;;;1.95;50.99
41800;BME280;27468;47.460;19.034;2023-01-29T13:31:27;101166.91;;;1.84;50.83
41800;BME280;27468;47.460;19.034;2023-01-29T13:34:13;101110.97;;;1.36;51.19
41800;BME280;27468;47.460;19.034;2023-01-29T13:36:47;101159.47;;;1.65;51.16
41800;BME280;27468;47.460;19.034;2023-01-29T13:39:27;101182.25;;;1.75;51.26
41800;BME280;27468;47.460;19.034;2023-01-29T13:41:58;100979.72;;;0.57;51.21
41800;BME280;27468;47.460;19.034;2023-01-29T13:44:34;101174.78;;;1.56;51.67
41800;BME280;27468;47.460;19.034;2023-01-29T13:47:04;101171.22;;;1.52;51.71
41800;BME280;27468;47.460;19.034;2023-01-29T13:49:44;101197.22;;;1.52;52.10
41800;BME280;27468;47.460;19.034;2023-01-29T13:52:39;101146.97;;;1.23;51.87
41800;BME280;27468;47.460;19.034;2023-01-29T14:02:41;101189.09;;;1.13;54.04
41800;BME280;27468;47.460;19.034;2023-01-29T14:07:57;101114.25;;;1.00;53.52
41800;BME280;27468;47.460;19.034;2023-01-29T14:10:30;101132.75;;;1.11;53.28
41800;BME280;27468;47.460;19.034;2023-01-29T14:15:32;101194.84;;;1.31;53.92
41800;BME280;27468;47.460;19.034;2023-01-29T14:20:38;101186.63;;;1.46;53.20
41800;BME280;27468;47.460;19.034;2023-01-29T14:23:06;101196.78;;;1.39;53.80
41800;BME280;27468;47.460;19.034;2023-01-29T14:25:36;101183.25;;;1.49;53.64
41800;BME280;27468;47.460;19.034;2023-01-29T14:28:03;101175.81;;;1.32;53.57
41800;BME280;27468;47.460;19.034;2023-01-29T14:30:38;101190.56;;;1.33;54.16
41800;BME280;27468;47.460;19.034;2023-01-29T14:33:21;101147.50;;;1.12;53.55
41800;BME280;27468;47.460;19.034;2023-01-29T14:35:49;101178.38;;;1.31;53.74
41800;BME280;27468;47.460;19.034;2023-01-29T14:38:15;101175.78;;;1.03;54.74
41800;BME280;27468;47.460;19.034;2023-01-29T14:40:44;101200.00;;;1.30;54.55
41800;BME280;27468;47.460;19.034;2023-01-29T14:43:18;101199.38;;;1.39;54.00
41800;BME280;27468;47.460;19.034;2023-01-29T14:45:46;101116.84;;;1.00;53.98
41800;BME280;27468;47.460;19.034;2023-01-29T14:48:35;101201.75;;;1.31;54.40
41800;BME280;27468;47.460;19.034;2023-01-29T14:51:07;101182.41;;;1.21;54.46
41800;BME280;27468;47.460;19.034;2023-01-29T14:56:33;101199.41;;;1.10;54.93
41800;BME280;27468;47.460;19.034;2023-01-29T14:59:19;101195.28;;;1.18;54.49
41800;BME280;27468;47.460;19.034;2023-01-29T15:01:50;101193.19;;;1.05;54.80
41800;BME280;27468;47.460;19.034;2023-01-29T15:04:25;101185.19;;;0.99;54.84
41800;BME280;27468;47.460;19.034;2023-01-29T15:14:48;101207.31;;;0.88;54.92
41800;BME280;27468;47.460;19.034;2023-01-29T15:17:21;101197.69;;;0.84;55.13